sensor_id;sensor_type;location;lat;lon;timestamp;pressure;altitude;pressure_sealevel;temperature;humidity
54439;BME280;40347;53.848;27.498;2023-04-07T00:00:54;1014.1;;;10.6;59.6
54439;BME280;40347;53.848;27.498;2023-04-07T00:05:54;1014.1;;;10.6;59.8
54439;BME280;40347;53.848;27.498;2023-04-07T00:10:54;1014.1;;;10.7;59.6
54439;BME280;40347;53.848;27.498;2023-04-07T00:16:20;1014.2;;;10.8;59.4
54439;BME280;40347;53.848;27.498;2023-04-07T00:20:54;1014.2;;;10.8;59.3
54439;BME280;40347;53.848;27.498;2023-04-07T00:25:54;1014.2;;;10.9;59.1
54439;BME280;40347;53.848;27.498;2023-04-07T00:30:54;1014.2;;;10.9;58.9
54439;BME280;40347;53.848;27.498;2023-04-07T00:36:40;1014.2;;;10.8;59
54439;BME280;40347;53.848;27.498;2023-04-07T00:41:32;1014.2;;;10.8;59.3
54439;BME280;40347;53.848;27.498;2023-04-07T00:45:54;1014.2;;;10.8;59.2
54439;BME280;40347;53.848;27.498;2023-04-07T00:51:18;1014.2;;;10.9;59
54439;BME280;40347;53.848;27.498;2023-04-07T00:55:54;1014.2;;;10.8;59.2
54439;BME280;40347;53.848;27.498;2023-04-07T01:00:55;1014.2;;;10.9;58.9
54439;BME280;40347;53.848;27.498;2023-04-07T01:05:54;1014.2;;;10.8;59.2
54439;BME280;40347;53.848;27.498;2023-04-07T01:10:55;1014.2;;;10.6;59.5
54439;BME280;40347;53.848;27.498;2023-04-07T01:15:54;1014.2;;;10.4;59.9
54439;BME280;40347;53.848;27.498;2023-04-07T01:21:05;1014.2;;;10.3;60.3
54439;BME280;40347;53.848;27.498;2023-04-07T01:26:06;1014.2;;;10.3;60.5
54439;BME280;40347;53.848;27.498;2023-04-07T01:31:08;1014.2;;;10.2;60.7
54439;BME280;40347;53.848;27.498;2023-04-07T01:36:00;1014.2;;;10.2;60.9
54439;BME280;40347;53.848;27.498;2023-04-07T01:40:54;1014.2;;;10.1;61.1
54439;BME280;40347;53.848;27.498;2023-04-07T01:46:18;1014.2;;;10.1;61.2
54439;BME280;40347;53.848;27.498;2023-04-07T01:50:54;1014.2;;;10.2;61.1
54439;BME280;40347;53.848;27.498;2023-04-07T01:55:54;1014.2;;;10.1;61.3
54439;BME280;40347;53.848;27.498;2023-04-07T02:01:00;1014.3;;;10;61.2
54439;BME280;40347;53.848;27.498;2023-04-07T02:06:31;1014.3;;;10;61.7
54439;BME280;40347;53.848;27.498;2023-04-07T02:11:19;1014.3;;;10;61.7
54439;BME280;40347;53.848;27.498;2023-04-07T02:16:04;1014.2;;;10.1;61.5
54439;BME280;40347;53.848;27.498;2023-04-07T02:20:54;1014.2;;;10.2;61.3
54439;BME280;40347;53.848;27.498;2023-04-07T02:26:00;1014.2;;;10.2;61.3
54439;BME280;40347;53.848;27.498;2023-04-07T02:31:06;1014.3;;;10.3;61
54439;BME280;40347;53.848;27.498;2023-04-07T02:36:18;1014.3;;;10.4;61
54439;BME280;40347;53.848;27.498;2023-04-07T02:41:04;1014.4;;;10.5;60.8
54439;BME280;40347;53.848;27.498;2023-04-07T02:45:54;1014.4;;;10.5;60.8
54439;BME280;40347;53.848;27.498;2023-04-07T02:50:54;1014.4;;;10.5;60.8
54439;BME280;40347;53.848;27.498;2023-04-07T02:56:32;1014.5;;;10.5;60.8
54439;BME280;40347;53.848;27.498;2023-04-07T03:01:04;1014.5;;;10.5;60.8
54439;BME280;40347;53.848;27.498;2023-04-07T03:05:54;1014.5;;;10.6;60.7
54439;BME280;40347;53.848;27.498;2023-04-07T03:10:54;1014.5;;;10.5;60.8
54439;BME280;40347;53.848;27.498;2023-04-07T03:16:14;1014.5;;;10.6;60.8
54439;BME280;40347;53.848;27.498;2023-04-07T03:21:18;1014.5;;;10.5;60.7
54439;BME280;40347;53.848;27.498;2023-04-07T03:26:16;1014.5;;;10.2;61.2
54439;BME280;40347;53.848;27.498;2023-04-07T03:31:06;1014.6;;;10;61.8
54439;BME280;40347;53.848;27.498;2023-04-07T03:36:14;1014.6;;;9.9;62.4
54439;BME280;40347;53.848;27.498;2023-04-07T03:41:00;1014.7;;;9.8;62.6
54439;BME280;40347;53.848;27.498;2023-04-07T03:45:54;1014.7;;;9.8;62.5
54439;BME280;40347;53.848;27.498;2023-04-07T03:50:54;1014.7;;;9.7;62.7
54439;BME280;40347;53.848;27.498;2023-04-07T03:56:06;1014.7;;;9.6;63.2
54439;BME280;40347;53.848;27.498;2023-04-07T04:00:54;1014.8;;;9.6;63.2
54439;BME280;40347;53.848;27.498;2023-04-07T04:06:12;1014.9;;;9.6;63.3
54439;BME280;40347;53.848;27.498;2023-04-07T04:11:06;1014.9;;;9.5;63.5
54439;BME280;40347;53.848;27.498;2023-04-07T04:16:18;1014.9;;;9.6;63.3
54439;BME280;40347;53.848;27.498;2023-04-07T04:21:06;1014.9;;;9.6;63.2
54439;BME280;40347;53.848;27.498;2023-04-07T04:26:00;1015;;;9.5;63.5
54439;BME280;40347;53.848;27.498;2023-04-07T04:30:54;1015;;;9.6;63.6
54439;BME280;40347;53.848;27.498;2023-04-07T04:36:18;1015;;;9.8;63.3
54439;BME280;40347;53.848;27.498;2023-04-07T04:41:18;1015.1;;;10.1;62.7
54439;BME280;40347;53.848;27.498;2023-04-07T04:46:06;1015.1;;;10.4;61.8
54439;BME280;40347;53.848;27.498;2023-04-07T04:51:08;1015.1;;;10.6;61.4
54439;BME280;40347;53.848;27.498;2023-04-07T04:55:54;1015.1;;;10.7;61.1
54439;BME280;40347;53.848;27.498;2023-04-07T05:00:54;1015.1;;;10.9;60.7
54439;BME280;40347;53.848;27.498;2023-04-07T05:06:06;1015.2;;;11;60.2
54439;BME280;40347;53.848;27.498;2023-04-07T05:11:02;1015.2;;;11.3;60.3
54439;BME280;40347;53.848;27.498;2023-04-07T05:15:54;1015.2;;;11.5;59.4
54439;BME280;40347;53.848;27.498;2023-04-07T05:21:00;1015.3;;;11.8;59.1
54439;BME280;40347;53.848;27.498;2023-04-07T05:26:02;1015.3;;;11.9;58.8
54439;BME280;40347;53.848;27.498;2023-04-07T05:30:54;1015.3;;;12;58.7
54439;BME280;40347;53.848;27.498;2023-04-07T05:36:04;1015.3;;;12.1;58.6
54439;BME280;40347;53.848;27.498;2023-04-07T05:41:08;1015.3;;;12.3;57.6
54439;BME280;40347;53.848;27.498;2023-04-07T05:46:14;1015.3;;;12.2;57.8
54439;BME280;40347;53.848;27.498;2023-04-07T05:51:04;1015.3;;;12.2;58.4
54439;BME280;40347;53.848;27.498;2023-04-07T05:56:06;1015.4;;;12.4;58.2
54439;BME280;40347;53.848;27.498;2023-04-07T06:00:54;1015.4;;;12.6;57.5
54439;BME280;40347;53.848;27.498;2023-04-07T06:06:26;1015.4;;;12.7;57.3
54439;BME280;40347;53.848;27.498;2023-04-07T06:11:14;1015.5;;;12.6;56.8
54439;BME280;40347;53.848;27.498;2023-04-07T06:16:16;1015.5;;;12.5;57.4
54439;BME280;40347;53.848;27.498;2023-04-07T06:20:54;1015.5;;;12.5;57.6
54439;BME280;40347;53.848;27.498;2023-04-07T06:26:04;1015.6;;;12.4;57.8
54439;BME280;40347;53.848;27.498;2023-04-07T06:30:54;1015.6;;;12.3;57.6
54439;BME280;40347;53.848;27.498;2023-04-07T06:35:54;1015.6;;;12.3;57.8
54439;BME280;40347;53.848;27.498;2023-04-07T06:41:16;1015.6;;;12.5;57.4
54439;BME280;40347;53.848;27.498;2023-04-07T06:46:06;1015.7;;;12.7;57.1
54439;BME280;40347;53.848;27.498;2023-04-07T06:51:06;1015.7;;;13;56.6
54439;BME280;40347;53.848;27.498;2023-04-07T06:56:14;1015.7;;;13.2;56.3
54439;BME280;40347;53.848;27.498;2023-04-07T07:01:00;1015.7;;;13.1;57
54439;BME280;40347;53.848;27.498;2023-04-07T07:06:30;1015.7;;;12.8;58.2
54439;BME280;40347;53.848;27.498;2023-04-07T07:11:06;1015.7;;;12.8;58.3
54439;BME280;40347;53.848;27.498;2023-04-07T07:16:04;1015.7;;;13.1;58.1
54439;BME280;40347;53.848;27.498;2023-04-07T07:21:08;1015.8;;;14;56.6
54439;BME280;40347;53.848;27.498;2023-04-07T07:26:00;1015.8;;;14.5;55.2
54439;BME280;40347;53.848;27.498;2023-04-07T07:31:08;1015.8;;;14.8;54.5
54439;BME280;40347;53.848;27.498;2023-04-07T07:35:54;1015.8;;;15.2;53.9
54439;BME280;40347;53.848;27.498;2023-04-07T07:40:54;1015.8;;;15.3;53.4
54439;BME280;40347;53.848;27.498;2023-04-07T07:46:08;1015.9;;;15;53.7
54439;BME280;40347;53.848;27.498;2023-04-07T07:50:54;1016;;;14.8;53.7
54439;BME280;40347;53.848;27.498;2023-04-07T07:56:02;1016;;;14.6;54.4
54439;BME280;40347;53.848;27.498;2023-04-07T08:01:12;1016;;;14.5;54.3
54439;BME280;40347;53.848;27.498;2023-04-07T08:06:16;1016;;;14.8;54.3
54439;BME280;40347;53.848;27.498;2023-04-07T08:11:00;1016.1;;;15.3;53.8
54439;BME280;40347;53.848;27.498;2023-04-07T08:16:00;1016.1;;;15.6;53.1
54439;BME280;40347;53.848;27.498;2023-04-07T08:20:54;1016.1;;;15.8;52.9
54439;BME280;40347;53.848;27.498;2023-04-07T08:26:04;1016.1;;;15.8;52.6
54439;BME280;40347;53.848;27.498;2023-04-07T08:31:14;1016.1;;;15.7;52.5
54439;BME280;40347;53.848;27.498;2023-04-07T08:36:08;1016.2;;;15.9;52.1
54439;BME280;40347;53.848;27.498;2023-04-07T08:40:57;1016.2;;;16.1;52.5
54439;BME280;40347;53.848;27.498;2023-04-07T08:46:06;1016.3;;;16.3;51.6
54439;BME280;40347;53.848;27.498;2023-04-07T08:50:54;1016.3;;;16.2;51.4
54439;BME280;40347;53.848;27.498;2023-04-07T08:56:06;1016.3;;;16.2;51.7
54439;BME280;40347;53.848;27.498;2023-04-07T09:01:08;1016.3;;;16.3;51.9
54439;BME280;40347;53.848;27.498;2023-04-07T09:06:00;1016.3;;;16.1;51.9
54439;BME280;40347;53.848;27.498;2023-04-07T09:11:02;1016.4;;;16;52.5
54439;BME280;40347;53.848;27.498;2023-04-07T09:16:22;1016.4;;;15.7;52.8
54439;BME280;40347;53.848;27.498;2023-04-07T09:21:03;1016.4;;;15.3;53.3
54439;BME280;40347;53.848;27.498;2023-04-07T09:26:18;1016.5;;;15;54.4
54439;BME280;40347;53.848;27.498;2023-04-07T09:30:54;1016.4;;;14.8;55
54439;BME280;40347;53.848;27.498;2023-04-07T09:36:16;1016.5;;;14.6;56.4
54439;BME280;40347;53.848;27.498;2023-04-07T09:40:55;1016.5;;;14.6;56.6
54439;BME280;40347;53.848;27.498;2023-04-07T09:46:07;1016.5;;;14.9;56.2
54439;BME280;40347;53.848;27.498;2023-04-07T09:50:54;1016.4;;;15.6;55
54439;BME280;40347;53.848;27.498;2023-04-07T09:55:54;1016.4;;;16.4;53.3
54439;BME280;40347;53.848;27.498;2023-04-07T10:00:54;1016.4;;;16.9;52.3
54439;BME280;40347;53.848;27.498;2023-04-07T10:05:54;1016.4;;;17.2;51.9
54439;BME280;40347;53.848;27.498;2023-04-07T10:11:04;1016.5;;;17.4;51.5
54439;BME280;40347;53.848;27.498;2023-04-07T10:15:54;1016.5;;;17.4;51.7
54439;BME280;40347;53.848;27.498;2023-04-07T10:21:00;1016.5;;;17.3;51.6
54439;BME280;40347;53.848;27.498;2023-04-07T10:26:06;1016.5;;;17.4;51.8
54439;BME280;40347;53.848;27.498;2023-04-07T10:31:06;1016.5;;;17.4;51.6
54439;BME280;40347;53.848;27.498;2023-04-07T10:36:02;1016.5;;;17.3;51.9
54439;BME280;40347;53.848;27.498;2023-04-07T10:41:46;1016.5;;;17.4;51.8
54439;BME280;40347;53.848;27.498;2023-04-07T10:45:54;1016.5;;;17.6;51.6
54439;BME280;40347;53.848;27.498;2023-04-07T10:51:18;1016.5;;;17.9;51.2
54439;BME280;40347;53.848;27.498;2023-04-07T10:56:16;1016.5;;;18.2;50.3
54439;BME280;40347;53.848;27.498;2023-04-07T11:01:15;1016.5;;;18.4;50.4
54439;BME280;40347;53.848;27.498;2023-04-07T11:06:02;1016.5;;;18.2;50.6
54439;BME280;40347;53.848;27.498;2023-04-07T11:11:11;1016.5;;;18.1;50.3
54439;BME280;40347;53.848;27.498;2023-04-07T11:15:54;1016.6;;;18.2;50.6
54439;BME280;40347;53.848;27.498;2023-04-07T11:20:55;1016.7;;;18.2;49.9
54439;BME280;40347;53.848;27.498;2023-04-07T11:26:04;1016.7;;;18.3;49.9
54439;BME280;40347;53.848;27.498;2023-04-07T11:30:54;1016.7;;;18.4;49.8
54439;BME280;40347;53.848;27.498;2023-04-07T11:36:14;1016.7;;;18.5;49.7
54439;BME280;40347;53.848;27.498;2023-04-07T11:40:55;1016.7;;;18.2;49.9
54439;BME280;40347;53.848;27.498;2023-04-07T11:46:07;1016.8;;;17.6;51.1
54439;BME280;40347;53.848;27.498;2023-04-07T11:51:16;1016.8;;;16.9;52.2
54439;BME280;40347;53.848;27.498;2023-04-07T11:56:26;1016.8;;;16.5;53.4
54439;BME280;40347;53.848;27.498;2023-04-07T12:01:01;1016.8;;;16.2;54.3
54439;BME280;40347;53.848;27.498;2023-04-07T12:06:25;1016.8;;;16.1;54.6
54439;BME280;40347;53.848;27.498;2023-04-07T12:11:16;1016.8;;;16.1;54.6
54439;BME280;40347;53.848;27.498;2023-04-07T12:16:02;1016.8;;;16.4;54.3
54439;BME280;40347;53.848;27.498;2023-04-07T12:21:08;1016.8;;;16.9;53.6
54439;BME280;40347;53.848;27.498;2023-04-07T12:25:54;1016.8;;;17.1;53
54439;BME280;40347;53.848;27.498;2023-04-07T12:31:02;1016.8;;;17.1;52.9
54439;BME280;40347;53.848;27.498;2023-04-07T12:36:04;1016.8;;;16.9;53.2
54439;BME280;40347;53.848;27.498;2023-04-07T12:40:54;1016.8;;;16.6;53.7
54439;BME280;40347;53.848;27.498;2023-04-07T12:46:08;1016.8;;;16.6;54.1
54439;BME280;40347;53.848;27.498;2023-04-07T12:51:00;1016.8;;;16.4;54.4
54439;BME280;40347;53.848;27.498;2023-04-07T12:55:54;1016.8;;;16.4;54.6
54439;BME280;40347;53.848;27.498;2023-04-07T13:00:54;1016.8;;;16.4;54.7
54439;BME280;40347;53.848;27.498;2023-04-07T13:05:54;1016.8;;;16.4;54.8
54439;BME280;40347;53.848;27.498;2023-04-07T13:11:10;1016.8;;;16.3;55
54439;BME280;40347;53.848;27.498;2023-04-07T13:15:54;1016.8;;;16.3;55
54439;BME280;40347;53.848;27.498;2023-04-07T13:21:08;1016.8;;;16.2;55.4
54439;BME280;40347;53.848;27.498;2023-04-07T13:26:18;1016.8;;;16.1;55.6
54439;BME280;40347;53.848;27.498;2023-04-07T13:31:06;1016.9;;;16;55.8
54439;BME280;40347;53.848;27.498;2023-04-07T13:36:10;1017;;;15.7;56.4
54439;BME280;40347;53.848;27.498;2023-04-07T13:40:54;1017;;;15.6;56.8
54439;BME280;40347;53.848;27.498;2023-04-07T13:45:54;1017.1;;;15.5;56.9
54439;BME280;40347;53.848;27.498;2023-04-07T13:50:54;1017.1;;;15.5;57.5
54439;BME280;40347;53.848;27.498;2023-04-07T13:56:18;1017.2;;;15.5;57.7
54439;BME280;40347;53.848;27.498;2023-04-07T14:01:10;1017.2;;;15.6;57.4
54439;BME280;40347;53.848;27.498;2023-04-07T14:05:54;1017.3;;;15.5;58
54439;BME280;40347;53.848;27.498;2023-04-07T14:10:54;1017.3;;;15.5;58.5
54439;BME280;40347;53.848;27.498;2023-04-07T14:15:54;1017.4;;;15.3;60.2
54439;BME280;40347;53.848;27.498;2023-04-07T14:21:04;1017.4;;;15;61.6
54439;BME280;40347;53.848;27.498;2023-04-07T14:26:11;1017.4;;;14.9;62
54439;BME280;40347;53.848;27.498;2023-04-07T14:31:11;1017.5;;;14.8;62
54439;BME280;40347;53.848;27.498;2023-04-07T14:36:12;1017.5;;;14.7;62.9
54439;BME280;40347;53.848;27.498;2023-04-07T14:41:16;1017.6;;;14.6;63.7
54439;BME280;40347;53.848;27.498;2023-04-07T14:46:04;1017.6;;;14.5;64.7
54439;BME280;40347;53.848;27.498;2023-04-07T14:50:54;1017.6;;;14.2;65
54439;BME280;40347;53.848;27.498;2023-04-07T14:55:54;1017.6;;;13.9;66
54439;BME280;40347;53.848;27.498;2023-04-07T15:01:16;1017.7;;;13.8;67.1
54439;BME280;40347;53.848;27.498;2023-04-07T15:05:54;1017.7;;;13.6;67.7
54439;BME280;40347;53.848;27.498;2023-04-07T15:10:54;1017.7;;;13.4;68
54439;BME280;40347;53.848;27.498;2023-04-07T15:15:54;1017.7;;;13.3;68.7
54439;BME280;40347;53.848;27.498;2023-04-07T15:21:22;1017.7;;;13.2;69.6
54439;BME280;40347;53.848;27.498;2023-04-07T15:26:10;1017.7;;;13.1;69.8
54439;BME280;40347;53.848;27.498;2023-04-07T15:30:54;1017.7;;;13.1;70.3
54439;BME280;40347;53.848;27.498;2023-04-07T15:36:18;1017.7;;;13.1;70
54439;BME280;40347;53.848;27.498;2023-04-07T15:40:54;1017.7;;;13.1;69.9
54439;BME280;40347;53.848;27.498;2023-04-07T15:46:00;1017.7;;;13.1;70.9
54439;BME280;40347;53.848;27.498;2023-04-07T15:51:10;1017.6;;;12.9;71.4
54439;BME280;40347;53.848;27.498;2023-04-07T15:56:07;1017.6;;;12.8;71.3
54439;BME280;40347;53.848;27.498;2023-04-07T16:01:16;1017.7;;;12.9;71.6
54439;BME280;40347;53.848;27.498;2023-04-07T16:05:54;1017.7;;;12.9;71.7
54439;BME280;40347;53.848;27.498;2023-04-07T16:11:01;1017.8;;;13;71.4
54439;BME280;40347;53.848;27.498;2023-04-07T16:15:54;1017.9;;;13.1;70.7
54439;BME280;40347;53.848;27.498;2023-04-07T16:21:06;1017.9;;;13.1;70.7
54439;BME280;40347;53.848;27.498;2023-04-07T16:26:18;1017.9;;;13.1;70.4
54439;BME280;40347;53.848;27.498;2023-04-07T16:30:54;1017.9;;;13;70.4
54439;BME280;40347;53.848;27.498;2023-04-07T16:36:14;1018;;;12.9;70.8
54439;BME280;40347;53.848;27.498;2023-04-07T16:41:10;1018;;;12.8;70.5
54439;BME280;40347;53.848;27.498;2023-04-07T16:45:54;1018.1;;;12.7;70.6
54439;BME280;40347;53.848;27.498;2023-04-07T16:51:06;1018.1;;;12.7;70.7
54439;BME280;40347;53.848;27.498;2023-04-07T16:55:54;1018.2;;;12.6;70.3
54439;BME280;40347;53.848;27.498;2023-04-07T17:01:16;1018.2;;;12.7;70.2
54439;BME280;40347;53.848;27.498;2023-04-07T17:06:16;1018.3;;;12.7;70
54439;BME280;40347;53.848;27.498;2023-04-07T17:11:06;1018.3;;;12.8;69.7
54439;BME280;40347;53.848;27.498;2023-04-07T17:16:09;1018.4;;;12.7;69.8
54439;BME280;40347;53.848;27.498;2023-04-07T17:21:06;1018.4;;;12.7;69.9
54439;BME280;40347;53.848;27.498;2023-04-07T17:25:54;1018.5;;;12.7;70.2
54439;BME280;40347;53.848;27.498;2023-04-07T17:31:10;1018.6;;;12.7;70.4
54439;BME280;40347;53.848;27.498;2023-04-07T17:36:06;1018.6;;;12.8;70.2
54439;BME280;40347;53.848;27.498;2023-04-07T17:41:06;1018.7;;;12.7;70.1
54439;BME280;40347;53.848;27.498;2023-04-07T17:46:10;1018.7;;;12.7;70.2
54439;BME280;40347;53.848;27.498;2023-04-07T17:51:08;1018.8;;;12.8;70.2
54439;BME280;40347;53.848;27.498;2023-04-07T17:56:08;1018.8;;;12.8;70
54439;BME280;40347;53.848;27.498;2023-04-07T18:01:18;1018.8;;;12.9;69.8
54439;BME280;40347;53.848;27.498;2023-04-07T18:05:54;1018.9;;;12.8;69.7
54439;BME280;40347;53.848;27.498;2023-04-07T18:10:54;1019;;;12.9;69.7
54439;BME280;40347;53.848;27.498;2023-04-07T18:16:12;1019;;;12.9;69.7
54439;BME280;40347;53.848;27.498;2023-04-07T18:21:06;1019.1;;;12.9;69.7
54439;BME280;40347;53.848;27.498;2023-04-07T18:26:06;1019.1;;;12.9;69.7
54439;BME280;40347;53.848;27.498;2023-04-07T18:30:58;1019.2;;;12.9;69.6
54439;BME280;40347;53.848;27.498;2023-04-07T18:35:54;1019.2;;;13;69.4
54439;BME280;40347;53.848;27.498;2023-04-07T18:41:00;1019.3;;;12.9;69.4
54439;BME280;40347;53.848;27.498;2023-04-07T18:45:54;1019.3;;;12.8;69.6
54439;BME280;40347;53.848;27.498;2023-04-07T18:51:18;1019.3;;;12.8;69.6
54439;BME280;40347;53.848;27.498;2023-04-07T18:56:06;1019.3;;;12.8;69.5
54439;BME280;40347;53.848;27.498;2023-04-07T19:01:08;1019.3;;;12.6;70.1
54439;BME280;40347;53.848;27.498;2023-04-07T19:06:15;1019.4;;;12.5;70.8
54439;BME280;40347;53.848;27.498;2023-04-07T19:11:06;1019.4;;;12.5;70.9
54439;BME280;40347;53.848;27.498;2023-04-07T19:15:54;1019.4;;;12.4;71.3
54439;BME280;40347;53.848;27.498;2023-04-07T19:20:54;1019.4;;;12.3;71.8
54439;BME280;40347;53.848;27.498;2023-04-07T19:25:54;1019.4;;;12.1;73
54439;BME280;40347;53.848;27.498;2023-04-07T19:31:00;1019.3;;;12;73.1
54439;BME280;40347;53.848;27.498;2023-04-07T19:36:14;1019.3;;;11.9;73.1
54439;BME280;40347;53.848;27.498;2023-04-07T19:40:54;1019.3;;;11.7;74.1
54439;BME280;40347;53.848;27.498;2023-04-07T19:45:54;1019.4;;;11.7;74.2
54439;BME280;40347;53.848;27.498;2023-04-07T19:50:54;1019.4;;;11.6;74.7
54439;BME280;40347;53.848;27.498;2023-04-07T19:55:54;1019.4;;;11.4;74.7
54439;BME280;40347;53.848;27.498;2023-04-07T20:00:54;1019.4;;;11.3;75.2
54439;BME280;40347;53.848;27.498;2023-04-07T20:06:06;1019.4;;;11.4;75.9
54439;BME280;40347;53.848;27.498;2023-04-07T20:11:16;1019.5;;;11.4;75.5
54439;BME280;40347;53.848;27.498;2023-04-07T20:15:54;1019.5;;;11.5;75.2
54439;BME280;40347;53.848;27.498;2023-04-07T20:21:01;1019.5;;;11.5;74.7
54439;BME280;40347;53.848;27.498;2023-04-07T20:26:14;1019.5;;;11.3;74.5
54439;BME280;40347;53.848;27.498;2023-04-07T20:31:16;1019.5;;;11.2;74.7
54439;BME280;40347;53.848;27.498;2023-04-07T20:35:54;1019.5;;;11.1;75
54439;BME280;40347;53.848;27.498;2023-04-07T20:41:08;1019.6;;;11;75.3
54439;BME280;40347;53.848;27.498;2023-04-07T20:46:00;1019.6;;;11.1;75.4
54439;BME280;40347;53.848;27.498;2023-04-07T20:51:14;1019.6;;;11.1;75.5
54439;BME280;40347;53.848;27.498;2023-04-07T20:55:54;1019.6;;;11.1;75.3
54439;BME280;40347;53.848;27.498;2023-04-07T21:01:10;1019.6;;;11.2;75
54439;BME280;40347;53.848;27.498;2023-04-07T21:06:00;1019.6;;;11.3;74.6
54439;BME280;40347;53.848;27.498;2023-04-07T21:10:54;1019.6;;;11.3;74.5
54439;BME280;40347;53.848;27.498;2023-04-07T21:15:54;1019.6;;;11.2;74.2
54439;BME280;40347;53.848;27.498;2023-04-07T21:20:55;1019.7;;;11.1;74.4
54439;BME280;40347;53.848;27.498;2023-04-07T21:26:06;1019.7;;;11.1;74.6
54439;BME280;40347;53.848;27.498;2023-04-07T21:31:00;1019.7;;;11;74.7
54439;BME280;40347;53.848;27.498;2023-04-07T21:35:54;1019.7;;;10.9;74.7
54439;BME280;40347;53.848;27.498;2023-04-07T21:41:08;1019.7;;;10.8;75.1
54439;BME280;40347;53.848;27.498;2023-04-07T21:45:54;1019.8;;;10.7;75.4
54439;BME280;40347;53.848;27.498;2023-04-07T21:51:06;1019.8;;;10.6;75.4
54439;BME280;40347;53.848;27.498;2023-04-07T21:55:54;1019.7;;;10.6;75.3
54439;BME280;40347;53.848;27.498;2023-04-07T22:01:00;1019.7;;;10.5;75.8
54439;BME280;40347;53.848;27.498;2023-04-07T22:06:08;1019.7;;;10.5;75.6
54439;BME280;40347;53.848;27.498;2023-04-07T22:11:06;1019.7;;;10.5;75.7
54439;BME280;40347;53.848;27.498;2023-04-07T22:16:06;1019.8;;;10.5;75.5
54439;BME280;40347;53.848;27.498;2023-04-07T22:21:10;1019.8;;;10.6;75.6
54439;BME280;40347;53.848;27.498;2023-04-07T22:25:54;1019.8;;;10.7;75.4
54439;BME280;40347;53.848;27.498;2023-04-07T22:31:00;1019.8;;;10.7;75.3
54439;BME280;40347;53.848;27.498;2023-04-07T22:36:10;1019.8;;;10.7;75.1
54439;BME280;40347;53.848;27.498;2023-04-07T22:41:06;1019.8;;;10.6;75.2
54439;BME280;40347;53.848;27.498;2023-04-07T22:45:54;1019.8;;;10.5;75.1
54439;BME280;40347;53.848;27.498;2023-04-07T22:50:54;1019.8;;;10.6;75.2
54439;BME280;40347;53.848;27.498;2023-04-07T22:55:54;1019.8;;;10.5;75.1
54439;BME280;40347;53.848;27.498;2023-04-07T23:01:06;1019.8;;;10.5;75.2
54439;BME280;40347;53.848;27.498;2023-04-07T23:06:18;1019.7;;;10.4;75.1
54439;BME280;40347;53.848;27.498;2023-04-07T23:11:18;1019.7;;;10.3;75.5
54439;BME280;40347;53.848;27.498;2023-04-07T23:15:54;1019.7;;;10.2;75.5
54439;BME280;40347;53.848;27.498;2023-04-07T23:20:54;1019.6;;;10.2;75.7
54439;BME280;40347;53.848;27.498;2023-04-07T23:26:19;1019.6;;;10.3;76.3
54439;BME280;40347;53.848;27.498;2023-04-07T23:30:54;1019.6;;;10.2;76.7
54439;BME280;40347;53.848;27.498;2023-04-07T23:35:54;1019.6;;;10.1;76.6
54439;BME280;40347;53.848;27.498;2023-04-07T23:41:06;1019.6;;;10.2;76.4
54439;BME280;40347;53.848;27.498;2023-04-07T23:45:54;1019.7;;;10.3;76.2
54439;BME280;40347;53.848;27.498;2023-04-07T23:50:55;1019.7;;;10.5;75.7
54439;BME280;40347;53.848;27.498;2023-04-07T23:56:06;1019.7;;;10.6;75.2
